sensor_id;sensor_type;location;lat;lon;timestamp;P1;durP1;ratioP1;P2;durP2;ratioP2
14876;SDS011;69691;48.172;17.070;2023-05-24T00:02:23;47.22;;;36.08;;
14876;SDS011;69691;48.172;17.070;2023-05-24T00:04:51;45.47;;;36.95;;
14876;SDS011;69691;48.172;17.070;2023-05-24T00:07:17;44.20;;;32.92;;
14876;SDS011;69691;48.172;17.070;2023-05-24T00:09:43;52.33;;;35.53;;
14876;SDS011;69691;48.172;17.070;2023-05-24T00:12:09;41.63;;;33.00;;
14876;SDS011;69691;48.172;17.070;2023-05-24T00:14:35;40.00;;;31.25;;
14876;SDS011;69691;48.172;17.070;2023-05-24T00:17:01;41.28;;;31.05;;
14876;SDS011;69691;48.172;17.070;2023-05-24T00:19:27;33.38;;;29.77;;
14876;SDS011;69691;48.172;17.070;2023-05-24T00:21:53;36.38;;;29.95;;
14876;SDS011;69691;48.172;17.070;2023-05-24T00:24:19;37.42;;;29.08;;
14876;SDS011;69691;48.172;17.070;2023-05-24T00:26:45;33.78;;;29.58;;
14876;SDS011;69691;48.172;17.070;2023-05-24T00:29:12;27.67;;;24.75;;
14876;SDS011;69691;48.172;17.070;2023-05-24T00:31:38;31.30;;;25.40;;
14876;SDS011;69691;48.172;17.070;2023-05-24T00:34:04;30.55;;;27.42;;
14876;SDS011;69691;48.172;17.070;2023-05-24T00:36:30;37.88;;;27.25;;
14876;SDS011;69691;48.172;17.070;2023-05-24T00:38:57;31.92;;;27.98;;
14876;SDS011;69691;48.172;17.070;2023-05-24T00:41:23;35.15;;;26.92;;
14876;SDS011;69691;48.172;17.070;2023-05-24T00:43:49;36.03;;;28.50;;
14876;SDS011;69691;48.172;17.070;2023-05-24T00:46:15;36.72;;;30.08;;
14876;SDS011;69691;48.172;17.070;2023-05-24T00:48:47;38.10;;;30.48;;
14876;SDS011;69691;48.172;17.070;2023-05-24T00:51:16;31.77;;;28.15;;
14876;SDS011;69691;48.172;17.070;2023-05-24T00:53:43;38.70;;;31.48;;
14876;SDS011;69691;48.172;17.070;2023-05-24T00:56:12;36.35;;;28.23;;
14876;SDS011;69691;48.172;17.070;2023-05-24T00:58:40;31.98;;;28.73;;
14876;SDS011;69691;48.172;17.070;2023-05-24T01:01:06;36.00;;;28.88;;
14876;SDS011;69691;48.172;17.070;2023-05-24T01:03:32;29.70;;;26.42;;
14876;SDS011;69691;48.172;17.070;2023-05-24T01:06:00;30.92;;;24.63;;
14876;SDS011;69691;48.172;17.070;2023-05-24T01:17:42;23.88;;;21.48;;
14876;SDS011;69691;48.172;17.070;2023-05-24T01:20:18;24.15;;;20.48;;
14876;SDS011;69691;48.172;17.070;2023-05-24T01:28:10;21.77;;;19.45;;
14876;SDS011;69691;48.172;17.070;2023-05-24T01:30:39;22.95;;;18.60;;
14876;SDS011;69691;48.172;17.070;2023-05-24T01:33:05;21.65;;;19.52;;
14876;SDS011;69691;48.172;17.070;2023-05-24T01:35:31;23.73;;;18.73;;
14876;SDS011;69691;48.172;17.070;2023-05-24T01:38:04;26.63;;;19.23;;
14876;SDS011;69691;48.172;17.070;2023-05-24T01:40:32;21.67;;;19.58;;
14876;SDS011;69691;48.172;17.070;2023-05-24T01:43:03;19.40;;;17.60;;
14876;SDS011;69691;48.172;17.070;2023-05-24T01:48:37;30.15;;;21.17;;
14876;SDS011;69691;48.172;17.070;2023-05-24T01:51:52;21.80;;;17.95;;
14876;SDS011;69691;48.172;17.070;2023-05-24T01:54:25;19.83;;;17.80;;
14876;SDS011;69691;48.172;17.070;2023-05-24T01:56:52;20.42;;;18.40;;
14876;SDS011;69691;48.172;17.070;2023-05-24T01:59:21;19.75;;;17.88;;
14876;SDS011;69691;48.172;17.070;2023-05-24T02:01:48;20.95;;;18.75;;
14876;SDS011;69691;48.172;17.070;2023-05-24T02:04:16;23.90;;;19.25;;
14876;SDS011;69691;48.172;17.070;2023-05-24T02:06:43;20.15;;;18.13;;
14876;SDS011;69691;48.172;17.070;2023-05-24T02:09:09;20.92;;;18.50;;
14876;SDS011;69691;48.172;17.070;2023-05-24T02:11:35;25.63;;;19.77;;
14876;SDS011;69691;48.172;17.070;2023-05-24T02:14:00;21.75;;;18.15;;
14876;SDS011;69691;48.172;17.070;2023-05-24T02:16:26;19.88;;;17.45;;
14876;SDS011;69691;48.172;17.070;2023-05-24T02:18:57;22.13;;;19.42;;
14876;SDS011;69691;48.172;17.070;2023-05-24T02:21:23;17.95;;;16.20;;
14876;SDS011;69691;48.172;17.070;2023-05-24T02:23:49;22.65;;;17.30;;
14876;SDS011;69691;48.172;17.070;2023-05-24T02:26:15;20.75;;;17.75;;
14876;SDS011;69691;48.172;17.070;2023-05-24T02:28:43;21.00;;;16.55;;
14876;SDS011;69691;48.172;17.070;2023-05-24T02:31:08;20.48;;;17.60;;
14876;SDS011;69691;48.172;17.070;2023-05-24T02:33:35;18.23;;;16.38;;
14876;SDS011;69691;48.172;17.070;2023-05-24T02:36:01;21.88;;;16.55;;
14876;SDS011;69691;48.172;17.070;2023-05-24T02:38:27;18.48;;;16.70;;
14876;SDS011;69691;48.172;17.070;2023-05-24T02:40:53;18.30;;;16.55;;
14876;SDS011;69691;48.172;17.070;2023-05-24T02:43:19;18.13;;;16.52;;
14876;SDS011;69691;48.172;17.070;2023-05-24T02:45:45;18.17;;;16.27;;
14876;SDS011;69691;48.172;17.070;2023-05-24T02:48:11;18.80;;;17.00;;
14876;SDS011;69691;48.172;17.070;2023-05-24T02:50:37;17.95;;;15.82;;
14876;SDS011;69691;48.172;17.070;2023-05-24T02:53:03;17.13;;;15.43;;
14876;SDS011;69691;48.172;17.070;2023-05-24T02:55:28;18.67;;;17.05;;
14876;SDS011;69691;48.172;17.070;2023-05-24T02:57:56;18.92;;;16.90;;
14876;SDS011;69691;48.172;17.070;2023-05-24T03:00:23;18.33;;;16.40;;
14876;SDS011;69691;48.172;17.070;2023-05-24T03:02:49;18.02;;;16.20;;
14876;SDS011;69691;48.172;17.070;2023-05-24T03:05:16;18.33;;;16.42;;
14876;SDS011;69691;48.172;17.070;2023-05-24T03:07:42;18.08;;;16.27;;
14876;SDS011;69691;48.172;17.070;2023-05-24T03:10:08;18.90;;;17.00;;
14876;SDS011;69691;48.172;17.070;2023-05-24T03:12:35;22.55;;;16.77;;
14876;SDS011;69691;48.172;17.070;2023-05-24T03:15:01;17.38;;;15.75;;
14876;SDS011;69691;48.172;17.070;2023-05-24T03:17:29;18.50;;;16.65;;
14876;SDS011;69691;48.172;17.070;2023-05-24T03:19:54;17.17;;;15.35;;
14876;SDS011;69691;48.172;17.070;2023-05-24T03:22:20;22.13;;;16.15;;
14876;SDS011;69691;48.172;17.070;2023-05-24T03:24:46;17.17;;;15.68;;
14876;SDS011;69691;48.172;17.070;2023-05-24T03:27:12;18.58;;;15.05;;
14876;SDS011;69691;48.172;17.070;2023-05-24T03:29:38;16.77;;;15.25;;
14876;SDS011;69691;48.172;17.070;2023-05-24T03:32:04;20.17;;;15.43;;
14876;SDS011;69691;48.172;17.070;2023-05-24T03:34:30;19.45;;;14.95;;
14876;SDS011;69691;48.172;17.070;2023-05-24T03:36:56;16.30;;;14.57;;
14876;SDS011;69691;48.172;17.070;2023-05-24T03:39:22;17.40;;;14.82;;
14876;SDS011;69691;48.172;17.070;2023-05-24T03:42:05;17.27;;;14.65;;
14876;SDS011;69691;48.172;17.070;2023-05-24T03:44:31;17.50;;;15.75;;
14876;SDS011;69691;48.172;17.070;2023-05-24T03:46:58;18.75;;;15.65;;
14876;SDS011;69691;48.172;17.070;2023-05-24T03:49:24;15.88;;;14.27;;
14876;SDS011;69691;48.172;17.070;2023-05-24T03:51:50;19.25;;;15.60;;
14876;SDS011;69691;48.172;17.070;2023-05-24T03:54:16;20.48;;;16.55;;
14876;SDS011;69691;48.172;17.070;2023-05-24T03:56:42;17.23;;;15.70;;
14876;SDS011;69691;48.172;17.070;2023-05-24T03:59:08;17.95;;;15.52;;
14876;SDS011;69691;48.172;17.070;2023-05-24T04:01:34;16.63;;;15.05;;
14876;SDS011;69691;48.172;17.070;2023-05-24T04:04:01;16.13;;;14.70;;
14876;SDS011;69691;48.172;17.070;2023-05-24T04:06:28;15.90;;;14.38;;
14876;SDS011;69691;48.172;17.070;2023-05-24T04:08:59;16.17;;;14.68;;
14876;SDS011;69691;48.172;17.070;2023-05-24T04:11:26;19.10;;;14.20;;
14876;SDS011;69691;48.172;17.070;2023-05-24T04:13:54;15.57;;;14.00;;
14876;SDS011;69691;48.172;17.070;2023-05-24T04:16:22;14.85;;;13.55;;
14876;SDS011;69691;48.172;17.070;2023-05-24T04:18:55;16.67;;;13.32;;
14876;SDS011;69691;48.172;17.070;2023-05-24T04:21:22;15.25;;;12.75;;
14876;SDS011;69691;48.172;17.070;2023-05-24T04:23:48;18.80;;;12.80;;
14876;SDS011;69691;48.172;17.070;2023-05-24T04:26:14;16.95;;;13.10;;
14876;SDS011;69691;48.172;17.070;2023-05-24T04:28:39;13.38;;;12.13;;
14876;SDS011;69691;48.172;17.070;2023-05-24T04:31:06;13.57;;;12.32;;
14876;SDS011;69691;48.172;17.070;2023-05-24T04:33:34;17.92;;;11.93;;
14876;SDS011;69691;48.172;17.070;2023-05-24T04:36:01;17.42;;;11.57;;
14876;SDS011;69691;48.172;17.070;2023-05-24T04:38:29;11.43;;;10.43;;
14876;SDS011;69691;48.172;17.070;2023-05-24T04:40:59;14.68;;;11.65;;
14876;SDS011;69691;48.172;17.070;2023-05-24T04:43:25;20.00;;;11.02;;
14876;SDS011;69691;48.172;17.070;2023-05-24T04:45:51;11.20;;;10.10;;
14876;SDS011;69691;48.172;17.070;2023-05-24T04:48:19;10.70;;;9.60;;
14876;SDS011;69691;48.172;17.070;2023-05-24T04:50:52;11.80;;;10.70;;
14876;SDS011;69691;48.172;17.070;2023-05-24T04:53:19;15.82;;;11.35;;
14876;SDS011;69691;48.172;17.070;2023-05-24T04:55:47;11.23;;;10.20;;
14876;SDS011;69691;48.172;17.070;2023-05-24T04:58:14;12.25;;;10.23;;
14876;SDS011;69691;48.172;17.070;2023-05-24T05:00:41;10.55;;;9.63;;
14876;SDS011;69691;48.172;17.070;2023-05-24T05:03:08;10.95;;;9.32;;
14876;SDS011;69691;48.172;17.070;2023-05-24T05:05:34;12.05;;;10.05;;
14876;SDS011;69691;48.172;17.070;2023-05-24T05:08:00;10.27;;;9.32;;
14876;SDS011;69691;48.172;17.070;2023-05-24T05:10:26;10.65;;;9.75;;
14876;SDS011;69691;48.172;17.070;2023-05-24T05:12:52;9.60;;;8.70;;
14876;SDS011;69691;48.172;17.070;2023-05-24T05:15:19;9.70;;;8.82;;
14876;SDS011;69691;48.172;17.070;2023-05-24T05:17:47;9.20;;;8.40;;
14876;SDS011;69691;48.172;17.070;2023-05-24T05:20:13;9.38;;;8.48;;
14876;SDS011;69691;48.172;17.070;2023-05-24T05:22:39;10.38;;;8.85;;
14876;SDS011;69691;48.172;17.070;2023-05-24T05:25:13;9.07;;;8.15;;
14876;SDS011;69691;48.172;17.070;2023-05-24T05:27:39;9.98;;;8.23;;
14876;SDS011;69691;48.172;17.070;2023-05-24T05:30:05;9.82;;;7.75;;
14876;SDS011;69691;48.172;17.070;2023-05-24T05:32:32;8.55;;;7.78;;
14876;SDS011;69691;48.172;17.070;2023-05-24T05:34:59;9.68;;;7.93;;
14876;SDS011;69691;48.172;17.070;2023-05-24T05:37:25;9.45;;;7.45;;
14876;SDS011;69691;48.172;17.070;2023-05-24T05:39:51;7.25;;;6.50;;
14876;SDS011;69691;48.172;17.070;2023-05-24T05:42:17;8.05;;;6.63;;
14876;SDS011;69691;48.172;17.070;2023-05-24T05:44:42;8.85;;;6.90;;
14876;SDS011;69691;48.172;17.070;2023-05-24T05:47:08;7.68;;;6.80;;
14876;SDS011;69691;48.172;17.070;2023-05-24T05:49:34;6.40;;;5.80;;
14876;SDS011;69691;48.172;17.070;2023-05-24T05:52:01;7.03;;;6.07;;
14876;SDS011;69691;48.172;17.070;2023-05-24T05:54:31;5.82;;;5.28;;
14876;SDS011;69691;48.172;17.070;2023-05-24T05:56:58;5.90;;;5.50;;
14876;SDS011;69691;48.172;17.070;2023-05-24T05:59:24;7.43;;;5.65;;
14876;SDS011;69691;48.172;17.070;2023-05-24T06:01:50;6.82;;;6.00;;
14876;SDS011;69691;48.172;17.070;2023-05-24T06:04:16;5.10;;;4.70;;
14876;SDS011;69691;48.172;17.070;2023-05-24T06:06:43;10.00;;;5.93;;
14876;SDS011;69691;48.172;17.070;2023-05-24T06:09:15;6.63;;;5.88;;
14876;SDS011;69691;48.172;17.070;2023-05-24T06:11:41;6.72;;;4.50;;
14876;SDS011;69691;48.172;17.070;2023-05-24T06:14:12;10.40;;;5.45;;
14876;SDS011;69691;48.172;17.070;2023-05-24T06:16:42;5.40;;;5.00;;
14876;SDS011;69691;48.172;17.070;2023-05-24T06:19:10;5.45;;;4.95;;
14876;SDS011;69691;48.172;17.070;2023-05-24T06:21:37;5.15;;;4.63;;
14876;SDS011;69691;48.172;17.070;2023-05-24T06:24:05;9.75;;;4.75;;
14876;SDS011;69691;48.172;17.070;2023-05-24T06:26:34;6.13;;;5.07;;
14876;SDS011;69691;48.172;17.070;2023-05-24T06:29:01;5.07;;;4.30;;
14876;SDS011;69691;48.172;17.070;2023-05-24T06:31:28;5.68;;;5.18;;
14876;SDS011;69691;48.172;17.070;2023-05-24T06:33:53;6.18;;;4.35;;
14876;SDS011;69691;48.172;17.070;2023-05-24T06:36:19;5.65;;;4.30;;
14876;SDS011;69691;48.172;17.070;2023-05-24T06:38:45;11.18;;;7.28;;
14876;SDS011;69691;48.172;17.070;2023-05-24T06:41:11;10.60;;;5.95;;
14876;SDS011;69691;48.172;17.070;2023-05-24T06:43:37;9.23;;;4.72;;
14876;SDS011;69691;48.172;17.070;2023-05-24T06:46:05;5.38;;;4.88;;
14876;SDS011;69691;48.172;17.070;2023-05-24T06:48:33;10.77;;;6.07;;
14876;SDS011;69691;48.172;17.070;2023-05-24T06:51:00;5.07;;;4.65;;
14876;SDS011;69691;48.172;17.070;2023-05-24T06:53:25;4.10;;;3.90;;
14876;SDS011;69691;48.172;17.070;2023-05-24T06:55:51;5.90;;;4.55;;
14876;SDS011;69691;48.172;17.070;2023-05-24T06:58:17;9.27;;;5.95;;
14876;SDS011;69691;48.172;17.070;2023-05-24T07:00:43;5.38;;;4.03;;
14876;SDS011;69691;48.172;17.070;2023-05-24T07:03:11;4.13;;;3.83;;
14876;SDS011;69691;48.172;17.070;2023-05-24T07:06:37;7.00;;;4.22;;
14876;SDS011;69691;48.172;17.070;2023-05-24T07:09:03;5.03;;;4.60;;
14876;SDS011;69691;48.172;17.070;2023-05-24T07:11:30;4.93;;;4.50;;
14876;SDS011;69691;48.172;17.070;2023-05-24T07:13:56;4.82;;;4.20;;
14876;SDS011;69691;48.172;17.070;2023-05-24T07:16:26;11.02;;;4.60;;
14876;SDS011;69691;48.172;17.070;2023-05-24T07:21:19;8.88;;;4.38;;
14876;SDS011;69691;48.172;17.070;2023-05-24T07:23:45;5.65;;;3.95;;
14876;SDS011;69691;48.172;17.070;2023-05-24T07:26:11;4.22;;;3.92;;
14876;SDS011;69691;48.172;17.070;2023-05-24T07:28:37;9.30;;;4.28;;
14876;SDS011;69691;48.172;17.070;2023-05-24T07:31:04;6.05;;;4.25;;
14876;SDS011;69691;48.172;17.070;2023-05-24T07:33:32;5.32;;;4.43;;
14876;SDS011;69691;48.172;17.070;2023-05-24T07:36:00;8.32;;;5.35;;
14876;SDS011;69691;48.172;17.070;2023-05-24T07:38:26;4.60;;;4.22;;
14876;SDS011;69691;48.172;17.070;2023-05-24T07:40:53;7.32;;;4.68;;
14876;SDS011;69691;48.172;17.070;2023-05-24T07:43:19;4.28;;;3.97;;
14876;SDS011;69691;48.172;17.070;2023-05-24T07:45:45;4.60;;;4.20;;
14876;SDS011;69691;48.172;17.070;2023-05-24T07:48:11;4.63;;;4.32;;
14876;SDS011;69691;48.172;17.070;2023-05-24T07:50:36;4.60;;;4.03;;
14876;SDS011;69691;48.172;17.070;2023-05-24T07:53:03;16.45;;;3.83;;
14876;SDS011;69691;48.172;17.070;2023-05-24T07:55:29;6.57;;;4.22;;
14876;SDS011;69691;48.172;17.070;2023-05-24T07:57:55;6.93;;;4.22;;
14876;SDS011;69691;48.172;17.070;2023-05-24T08:00:21;5.40;;;4.82;;
14876;SDS011;69691;48.172;17.070;2023-05-24T08:02:47;8.15;;;4.45;;
14876;SDS011;69691;48.172;17.070;2023-05-24T08:05:13;7.70;;;3.83;;
14876;SDS011;69691;48.172;17.070;2023-05-24T08:07:40;6.35;;;4.10;;
14876;SDS011;69691;48.172;17.070;2023-05-24T08:10:07;4.60;;;4.30;;
14876;SDS011;69691;48.172;17.070;2023-05-24T08:12:38;5.88;;;4.43;;
14876;SDS011;69691;48.172;17.070;2023-05-24T08:15:04;4.65;;;4.30;;
14876;SDS011;69691;48.172;17.070;2023-05-24T08:17:31;4.63;;;4.28;;
14876;SDS011;69691;48.172;17.070;2023-05-24T08:19:57;4.65;;;4.22;;
14876;SDS011;69691;48.172;17.070;2023-05-24T08:22:23;5.57;;;4.53;;
14876;SDS011;69691;48.172;17.070;2023-05-24T08:24:48;4.30;;;4.00;;
14876;SDS011;69691;48.172;17.070;2023-05-24T08:27:15;7.70;;;4.20;;
14876;SDS011;69691;48.172;17.070;2023-05-24T08:29:42;4.60;;;4.22;;
14876;SDS011;69691;48.172;17.070;2023-05-24T08:32:07;4.30;;;4.00;;
14876;SDS011;69691;48.172;17.070;2023-05-24T08:34:36;4.53;;;4.22;;
14876;SDS011;69691;48.172;17.070;2023-05-24T08:37:03;4.93;;;4.53;;
14876;SDS011;69691;48.172;17.070;2023-05-24T08:39:29;5.35;;;4.25;;
14876;SDS011;69691;48.172;17.070;2023-05-24T08:41:56;4.80;;;4.38;;
14876;SDS011;69691;48.172;17.070;2023-05-24T08:44:23;4.15;;;3.85;;
14876;SDS011;69691;48.172;17.070;2023-05-24T08:46:50;12.80;;;5.65;;
14876;SDS011;69691;48.172;17.070;2023-05-24T08:49:17;11.00;;;5.63;;
14876;SDS011;69691;48.172;17.070;2023-05-24T08:51:43;5.63;;;4.45;;
14876;SDS011;69691;48.172;17.070;2023-05-24T08:54:10;9.70;;;4.72;;
14876;SDS011;69691;48.172;17.070;2023-05-24T08:56:38;11.98;;;5.07;;
14876;SDS011;69691;48.172;17.070;2023-05-24T08:59:08;4.43;;;4.05;;
14876;SDS011;69691;48.172;17.070;2023-05-24T09:01:38;4.78;;;4.28;;
14876;SDS011;69691;48.172;17.070;2023-05-24T09:04:08;5.22;;;4.35;;
14876;SDS011;69691;48.172;17.070;2023-05-24T09:06:34;7.75;;;4.50;;
14876;SDS011;69691;48.172;17.070;2023-05-24T09:09:01;4.88;;;4.43;;
14876;SDS011;69691;48.172;17.070;2023-05-24T09:11:28;5.20;;;4.78;;
14876;SDS011;69691;48.172;17.070;2023-05-24T09:13:56;5.13;;;4.30;;
14876;SDS011;69691;48.172;17.070;2023-05-24T09:16:23;8.32;;;5.28;;
14876;SDS011;69691;48.172;17.070;2023-05-24T09:18:49;6.78;;;4.70;;
14876;SDS011;69691;48.172;17.070;2023-05-24T09:21:15;4.97;;;4.57;;
14876;SDS011;69691;48.172;17.070;2023-05-24T09:23:41;6.65;;;4.60;;
14876;SDS011;69691;48.172;17.070;2023-05-24T09:26:09;6.35;;;4.43;;
14876;SDS011;69691;48.172;17.070;2023-05-24T09:28:36;11.35;;;4.68;;
14876;SDS011;69691;48.172;17.070;2023-05-24T09:31:02;5.03;;;4.57;;
14876;SDS011;69691;48.172;17.070;2023-05-24T09:33:29;7.05;;;4.72;;
14876;SDS011;69691;48.172;17.070;2023-05-24T09:35:59;5.20;;;4.32;;
14876;SDS011;69691;48.172;17.070;2023-05-24T09:38:28;5.85;;;4.80;;
14876;SDS011;69691;48.172;17.070;2023-05-24T09:40:58;7.30;;;5.00;;
14876;SDS011;69691;48.172;17.070;2023-05-24T09:43:32;4.68;;;4.30;;
14876;SDS011;69691;48.172;17.070;2023-05-24T09:46:03;6.45;;;4.43;;
14876;SDS011;69691;48.172;17.070;2023-05-24T09:48:30;4.88;;;4.47;;
14876;SDS011;69691;48.172;17.070;2023-05-24T09:51:03;7.10;;;4.60;;
14876;SDS011;69691;48.172;17.070;2023-05-24T09:53:33;5.75;;;4.60;;
14876;SDS011;69691;48.172;17.070;2023-05-24T09:56:08;6.80;;;4.72;;
14876;SDS011;69691;48.172;17.070;2023-05-24T09:58:34;5.15;;;4.70;;
14876;SDS011;69691;48.172;17.070;2023-05-24T10:01:08;4.50;;;4.15;;
14876;SDS011;69691;48.172;17.070;2023-05-24T10:03:36;4.40;;;4.00;;
14876;SDS011;69691;48.172;17.070;2023-05-24T10:06:03;6.70;;;4.80;;
14876;SDS011;69691;48.172;17.070;2023-05-24T10:08:35;5.07;;;4.47;;
14876;SDS011;69691;48.172;17.070;2023-05-24T10:11:03;6.15;;;4.50;;
14876;SDS011;69691;48.172;17.070;2023-05-24T10:13:31;4.85;;;4.35;;
14876;SDS011;69691;48.172;17.070;2023-05-24T10:16:01;6.07;;;5.00;;
14876;SDS011;69691;48.172;17.070;2023-05-24T10:18:28;5.57;;;4.97;;
14876;SDS011;69691;48.172;17.070;2023-05-24T10:20:54;7.38;;;5.18;;
14876;SDS011;69691;48.172;17.070;2023-05-24T10:23:23;8.45;;;5.35;;
14876;SDS011;69691;48.172;17.070;2023-05-24T10:25:59;6.03;;;4.97;;
14876;SDS011;69691;48.172;17.070;2023-05-24T10:28:50;5.15;;;4.75;;
14876;SDS011;69691;48.172;17.070;2023-05-24T10:31:21;6.15;;;4.75;;
14876;SDS011;69691;48.172;17.070;2023-05-24T10:34:01;5.70;;;4.75;;
14876;SDS011;69691;48.172;17.070;2023-05-24T10:36:29;4.97;;;4.50;;
14876;SDS011;69691;48.172;17.070;2023-05-24T10:38:57;5.07;;;4.50;;
14876;SDS011;69691;48.172;17.070;2023-05-24T10:41:26;6.28;;;4.30;;
14876;SDS011;69691;48.172;17.070;2023-05-24T10:43:52;6.60;;;4.45;;
14876;SDS011;69691;48.172;17.070;2023-05-24T10:46:19;4.30;;;3.90;;
14876;SDS011;69691;48.172;17.070;2023-05-24T10:48:59;4.97;;;4.28;;
14876;SDS011;69691;48.172;17.070;2023-05-24T10:51:30;4.97;;;4.55;;
14876;SDS011;69691;48.172;17.070;2023-05-24T10:54:11;5.03;;;4.55;;
14876;SDS011;69691;48.172;17.070;2023-05-24T10:56:44;5.35;;;4.78;;
14876;SDS011;69691;48.172;17.070;2023-05-24T10:59:47;6.03;;;5.00;;
14876;SDS011;69691;48.172;17.070;2023-05-24T11:02:09;6.32;;;4.95;;
14876;SDS011;69691;48.172;17.070;2023-05-24T11:04:41;5.00;;;4.60;;
14876;SDS011;69691;48.172;17.070;2023-05-24T11:07:12;8.43;;;4.97;;
14876;SDS011;69691;48.172;17.070;2023-05-24T11:09:39;5.38;;;4.82;;
14876;SDS011;69691;48.172;17.070;2023-05-24T11:12:17;5.45;;;4.95;;
14876;SDS011;69691;48.172;17.070;2023-05-24T11:14:47;5.88;;;5.10;;
14876;SDS011;69691;48.172;17.070;2023-05-24T11:17:15;5.70;;;5.10;;
14876;SDS011;69691;48.172;17.070;2023-05-24T11:19:45;6.18;;;5.35;;
14876;SDS011;69691;48.172;17.070;2023-05-24T11:22:19;6.30;;;4.65;;
14876;SDS011;69691;48.172;17.070;2023-05-24T11:24:48;6.40;;;5.00;;
14876;SDS011;69691;48.172;17.070;2023-05-24T11:27:16;5.35;;;4.90;;
14876;SDS011;69691;48.172;17.070;2023-05-24T11:29:42;9.80;;;5.05;;
14876;SDS011;69691;48.172;17.070;2023-05-24T11:32:14;5.35;;;4.95;;
14876;SDS011;69691;48.172;17.070;2023-05-24T11:34:42;6.57;;;5.35;;
14876;SDS011;69691;48.172;17.070;2023-05-24T11:37:10;5.72;;;5.22;;
14876;SDS011;69691;48.172;17.070;2023-05-24T11:39:36;13.30;;;5.45;;
14876;SDS011;69691;48.172;17.070;2023-05-24T11:42:03;7.57;;;5.00;;
14876;SDS011;69691;48.172;17.070;2023-05-24T11:44:30;8.73;;;5.68;;
14876;SDS011;69691;48.172;17.070;2023-05-24T11:47:01;6.55;;;5.20;;
14876;SDS011;69691;48.172;17.070;2023-05-24T11:49:29;10.27;;;5.33;;
14876;SDS011;69691;48.172;17.070;2023-05-24T11:51:55;6.68;;;5.43;;
14876;SDS011;69691;48.172;17.070;2023-05-24T11:54:23;6.40;;;5.30;;
14876;SDS011;69691;48.172;17.070;2023-05-24T11:56:51;6.25;;;5.65;;
14876;SDS011;69691;48.172;17.070;2023-05-24T12:01:50;9.52;;;5.68;;
14876;SDS011;69691;48.172;17.070;2023-05-24T12:04:30;5.40;;;4.97;;
14876;SDS011;69691;48.172;17.070;2023-05-24T12:06:57;5.25;;;4.80;;
14876;SDS011;69691;48.172;17.070;2023-05-24T12:09:23;6.63;;;4.47;;
14876;SDS011;69691;48.172;17.070;2023-05-24T12:11:49;6.28;;;4.97;;
14876;SDS011;69691;48.172;17.070;2023-05-24T12:14:17;5.68;;;5.10;;
14876;SDS011;69691;48.172;17.070;2023-05-24T12:16:57;5.38;;;4.60;;
14876;SDS011;69691;48.172;17.070;2023-05-24T12:19:24;8.07;;;5.43;;
14876;SDS011;69691;48.172;17.070;2023-05-24T12:21:56;7.13;;;4.80;;
14876;SDS011;69691;48.172;17.070;2023-05-24T12:24:23;7.05;;;4.82;;
14876;SDS011;69691;48.172;17.070;2023-05-24T12:26:50;7.45;;;5.60;;
14876;SDS011;69691;48.172;17.070;2023-05-24T12:29:16;8.20;;;5.03;;
14876;SDS011;69691;48.172;17.070;2023-05-24T12:31:45;9.45;;;4.95;;
14876;SDS011;69691;48.172;17.070;2023-05-24T12:34:19;5.00;;;4.53;;
14876;SDS011;69691;48.172;17.070;2023-05-24T12:36:45;5.32;;;4.90;;
14876;SDS011;69691;48.172;17.070;2023-05-24T12:39:25;5.55;;;5.10;;
14876;SDS011;69691;48.172;17.070;2023-05-24T12:41:56;7.32;;;5.15;;
14876;SDS011;69691;48.172;17.070;2023-05-24T12:44:29;7.22;;;4.53;;
14876;SDS011;69691;48.172;17.070;2023-05-24T12:47:00;5.97;;;5.18;;
14876;SDS011;69691;48.172;17.070;2023-05-24T12:49:30;9.57;;;4.55;;
14876;SDS011;69691;48.172;17.070;2023-05-24T12:51:57;5.20;;;4.72;;
14876;SDS011;69691;48.172;17.070;2023-05-24T12:54:24;11.05;;;4.90;;
14876;SDS011;69691;48.172;17.070;2023-05-24T12:56:52;7.57;;;5.00;;
14876;SDS011;69691;48.172;17.070;2023-05-24T12:59:19;5.00;;;4.53;;
14876;SDS011;69691;48.172;17.070;2023-05-24T13:01:45;6.40;;;4.75;;
14876;SDS011;69691;48.172;17.070;2023-05-24T13:04:16;5.28;;;4.65;;
14876;SDS011;69691;48.172;17.070;2023-05-24T13:06:45;8.52;;;4.57;;
14876;SDS011;69691;48.172;17.070;2023-05-24T13:09:12;5.55;;;5.07;;
14876;SDS011;69691;48.172;17.070;2023-05-24T13:11:38;5.03;;;4.63;;
14876;SDS011;69691;48.172;17.070;2023-05-24T13:14:04;6.45;;;4.78;;
14876;SDS011;69691;48.172;17.070;2023-05-24T13:16:30;4.60;;;4.20;;
14876;SDS011;69691;48.172;17.070;2023-05-24T13:18:57;5.55;;;4.38;;
14876;SDS011;69691;48.172;17.070;2023-05-24T13:21:23;5.65;;;4.38;;
14876;SDS011;69691;48.172;17.070;2023-05-24T13:23:49;4.65;;;4.30;;
14876;SDS011;69691;48.172;17.070;2023-05-24T13:26:16;5.20;;;4.70;;
14876;SDS011;69691;48.172;17.070;2023-05-24T13:28:42;6.05;;;5.35;;
14876;SDS011;69691;48.172;17.070;2023-05-24T13:31:08;6.93;;;4.68;;
14876;SDS011;69691;48.172;17.070;2023-05-24T13:33:34;5.88;;;5.20;;
14876;SDS011;69691;48.172;17.070;2023-05-24T13:36:00;4.88;;;4.47;;
14876;SDS011;69691;48.172;17.070;2023-05-24T13:38:26;4.97;;;4.47;;
14876;SDS011;69691;48.172;17.070;2023-05-24T13:40:52;5.30;;;4.85;;
14876;SDS011;69691;48.172;17.070;2023-05-24T13:43:19;5.60;;;4.40;;
14876;SDS011;69691;48.172;17.070;2023-05-24T13:45:46;5.60;;;5.00;;
14876;SDS011;69691;48.172;17.070;2023-05-24T13:48:12;5.85;;;4.63;;
14876;SDS011;69691;48.172;17.070;2023-05-24T13:50:38;5.30;;;4.80;;
14876;SDS011;69691;48.172;17.070;2023-05-24T13:53:04;5.90;;;5.20;;
14876;SDS011;69691;48.172;17.070;2023-05-24T13:55:32;5.30;;;4.80;;
14876;SDS011;69691;48.172;17.070;2023-05-24T13:58:00;5.57;;;5.03;;
14876;SDS011;69691;48.172;17.070;2023-05-24T14:00:28;7.90;;;5.07;;
14876;SDS011;69691;48.172;17.070;2023-05-24T14:02:55;6.40;;;4.82;;
14876;SDS011;69691;48.172;17.070;2023-05-24T14:05:22;10.38;;;5.18;;
14876;SDS011;69691;48.172;17.070;2023-05-24T14:07:47;5.25;;;4.32;;
14876;SDS011;69691;48.172;17.070;2023-05-24T14:10:13;8.43;;;5.22;;
14876;SDS011;69691;48.172;17.070;2023-05-24T14:12:40;6.75;;;4.93;;
14876;SDS011;69691;48.172;17.070;2023-05-24T14:15:06;6.18;;;4.75;;
14876;SDS011;69691;48.172;17.070;2023-05-24T14:17:33;7.13;;;5.20;;
14876;SDS011;69691;48.172;17.070;2023-05-24T14:19:59;7.07;;;4.32;;
14876;SDS011;69691;48.172;17.070;2023-05-24T14:22:25;5.43;;;4.78;;
14876;SDS011;69691;48.172;17.070;2023-05-24T14:24:53;6.93;;;4.88;;
14876;SDS011;69691;48.172;17.070;2023-05-24T14:27:19;4.97;;;4.55;;
14876;SDS011;69691;48.172;17.070;2023-05-24T14:29:45;7.22;;;4.32;;
14876;SDS011;69691;48.172;17.070;2023-05-24T14:32:11;7.28;;;4.63;;
14876;SDS011;69691;48.172;17.070;2023-05-24T14:34:37;8.25;;;5.03;;
14876;SDS011;69691;48.172;17.070;2023-05-24T14:37:03;6.70;;;5.10;;
14876;SDS011;69691;48.172;17.070;2023-05-24T14:39:29;8.80;;;4.60;;
14876;SDS011;69691;48.172;17.070;2023-05-24T14:41:55;5.65;;;4.72;;
14876;SDS011;69691;48.172;17.070;2023-05-24T14:44:21;6.30;;;5.40;;
14876;SDS011;69691;48.172;17.070;2023-05-24T14:46:47;14.13;;;4.45;;
14876;SDS011;69691;48.172;17.070;2023-05-24T14:49:13;8.70;;;5.43;;
14876;SDS011;69691;48.172;17.070;2023-05-24T14:51:39;4.55;;;4.15;;
14876;SDS011;69691;48.172;17.070;2023-05-24T14:54:05;4.78;;;4.38;;